Hovedside
METAR-TAF:

METAR-TAF

Lufthavner :

Mariehamn, Finland

Mariehamn lufthavn

breddegrad: 60-07N, lengdegrad: 019-54E, høyde over havet: 6 m

Gjeldene værobservasjon

Denne rapporten ble laget for 35 minutter siden, klokken 20:20 UTC
Vind 16 kt fra Nord-nordvest, skiftende mellom Vest-nordvest og Nord
Temperatur 7°C
Luftfuktighet 57%
Trykk 1014 hPa
Sikt 10 km eller mer
ingen skyer under 1500 m og ingen bygeskyer

METAR: EFMA 262020Z AUTO 34016KT 300V010 CAVOK 07/M01 Q1014

Tid: 23:55 (20:55 UTC)

Varsel

Denne rapporten ble laget for 18 minutter siden, klokken 20:37 UTC
Varsel gyldig fra 26. klokken 21 UTC til 27. klokken 06 UTC
Vind 14 kt fra Nord-nordvest
Sikt 10 km eller mer
ingen skyer under 1500 m og ingen bygeskyer
Midlertidig
fra 26. klokken 21 UTC til 27. klokken 01 UTC
Vind 17 kt fra Nord-nordvest med vindkast opp mot 28 kt

TAF: EFMA 262037Z 2621/2706 33014KT CAVOK TEMPO 2621/2701 33017G28KT

Værobservasjoner og værvarsel for over 4000 flyplasser (METAR- og TAF-rapporter).

Tilgjengelige stasjoner er representert av de røde og gule prikkene på kartet.

Hold musepekeren over prikken for å se navnet på stasjonen.

Klikk så for å se værobservasjoner og -varsler.

For å forandre kartet kan du klikke på den grønne knappen med svart kryss for å zoome inn, på den grønne knappen med strek for å zoome ut, eller på de grønne pilene for å se tilstøtende kart.


METAR-TAF: